Terminal Aerodrome Forecast
Issued by NWS Cleveland, OH

Home | Current Version | Previous Version | Graphics & Text | Print | Product List | Glossary Off
Versions: 1 2 3 4 5 6 7 8 9 10 11 12 13 14

000
FTUS41 KCLE 210500
TAFMFD
TAF
KMFD 210539Z 2106/2206 VRB04KT P6SM -SHRA SCT045 OVC060
     FM210700 VRB04KT P6SM OVC050
     FM211500 33006KT P6SM OVC060
     FM220000 24005KT P6SM SCT120=

USA.gov is the U.S. government's official web portal to all federal, state and local government web resources and services.